createdAt,value
2022-12-16T07:48:07.887Z,19.83
2022-12-16T07:50:54.965Z,20.43
2022-12-16T07:53:41.418Z,17.63
2022-12-16T07:56:27.683Z,15.57
2022-12-16T07:59:13.106Z,17.53
2022-12-16T08:01:58.738Z,17.37
2022-12-16T08:04:45.986Z,15.30
2022-12-16T08:07:31.517Z,11.27
2022-12-16T08:10:16.710Z,11.13
2022-12-16T08:13:02.021Z,14.23
2022-12-16T08:15:46.732Z,14.83
2022-12-16T08:18:32.381Z,20.53
2022-12-16T08:21:35.599Z,23.93
2022-12-16T08:24:21.140Z,25.50
2022-12-16T08:27:06.420Z,24.70
2022-12-16T08:29:51.889Z,18.07
2022-12-16T08:32:37.465Z,19.53
2022-12-16T08:35:23.245Z,20.50
2022-12-16T08:38:14.071Z,22.40
2022-12-16T08:41:00.696Z,18.17
2022-12-16T08:43:46.920Z,22.53
2022-12-16T08:46:32.539Z,22.03
2022-12-16T08:49:17.980Z,18.43
2022-12-16T08:52:03.578Z,25.53
2022-12-16T08:54:50.442Z,21.23
2022-12-16T08:57:36.044Z,23.20
2022-12-16T09:00:22.871Z,17.33
2022-12-16T09:03:26.508Z,16.03
2022-12-16T09:06:17.445Z,16.27
2022-12-16T09:09:11.573Z,19.70
2022-12-16T09:11:58.793Z,15.83
2022-12-16T09:14:44.402Z,16.40
2022-12-16T09:17:29.853Z,18.50
2022-12-16T09:20:15.027Z,17.27
2022-12-16T09:23:00.266Z,16.13
2022-12-16T09:25:45.832Z,18.17
2022-12-16T09:28:32.808Z,16.27
2022-12-16T09:31:18.020Z,15.53
2022-12-16T09:34:03.242Z,13.83
2022-12-16T09:36:48.753Z,13.48
2022-12-16T09:39:34.392Z,15.23
2022-12-16T09:42:29.376Z,11.20
2022-12-16T09:45:25.465Z,15.30
2022-12-16T09:48:19.511Z,15.00
2022-12-16T09:51:05.056Z,18.17
2022-12-16T09:53:55.242Z,14.10
2022-12-16T09:56:46.499Z,15.32
2022-12-16T09:59:50.690Z,11.57
2022-12-16T10:02:39.818Z,12.18
2022-12-16T10:05:29.409Z,10.87
2022-12-16T10:08:24.916Z,15.60
2022-12-16T10:11:16.539Z,15.98
2022-12-16T10:14:19.105Z,16.10
2022-12-16T10:17:15.004Z,17.73
2022-12-16T10:20:10.177Z,16.27
2022-12-16T10:23:00.882Z,18.38
2022-12-16T10:25:50.916Z,19.73
2022-12-16T10:28:43.227Z,19.03
2022-12-16T10:31:33.917Z,17.50
2022-12-16T10:34:19.870Z,20.70
2022-12-16T10:37:12.345Z,17.67
2022-12-16T10:40:04.695Z,21.77
2022-12-16T10:43:06.683Z,18.50
2022-12-16T10:45:56.947Z,16.97
2022-12-16T10:48:51.383Z,16.23
2022-12-16T10:51:43.039Z,13.48
2022-12-16T10:54:47.168Z,13.15
2022-12-16T10:57:39.409Z,18.03
2022-12-16T11:00:31.169Z,13.13
2022-12-16T11:03:36.130Z,14.50
2022-12-16T11:06:22.180Z,14.80
2022-12-16T11:09:07.626Z,10.97
2022-12-16T11:11:55.641Z,12.80
2022-12-16T11:15:05.661Z,10.87
2022-12-16T11:17:49.032Z,12.93
2022-12-16T11:20:38.650Z,11.70
2022-12-16T11:23:37.392Z,12.60
2022-12-16T11:26:36.232Z,11.80
2022-12-16T11:29:30.948Z,11.20
2022-12-16T11:32:21.124Z,10.45
2022-12-16T11:35:12.793Z,8.50
2022-12-16T11:38:00.474Z,9.35
2022-12-16T11:40:48.989Z,8.90
2022-12-16T11:43:37.153Z,7.07
2022-12-16T11:46:43.257Z,7.53
2022-12-16T11:49:49.734Z,8.85
2022-12-16T11:52:37.980Z,9.70
2022-12-16T11:58:57.176Z,7.13
2022-12-16T12:01:49.003Z,8.40
2022-12-16T12:04:34.558Z,6.63
2022-12-16T12:07:45.603Z,6.97
2022-12-16T12:10:49.207Z,8.90
2022-12-16T12:13:51.163Z,10.88
2022-12-16T12:16:49.345Z,10.05
2022-12-16T12:19:43.858Z,13.80
